Time;durP1;ratioP1;P1;durP2;ratioP2;P2;SDS_P1;SDS_P2;PMS_P1;PMS_P2;Temp;Humidity;BMP_temperature;BMP_pressure;BME280_temperature;BME280_humidity;BME280_pressure;Samples;Min_cycle;Max_cycle;Signal;HPM_P1;HPM_P2
2024/03/01 00:01:48;;;;;;;27.90;16.70;;;6.80;80.60;;;8.63;57.43;96610.69;5032590;28;20400;-48
2024/03/01 00:04:17;;;;;;;31.23;18.20;;;6.80;80.30;;;8.65;57.39;96602.56;5015364;28;20048;-48
2024/03/01 00:06:45;;;;;;;34.43;17.10;;;6.90;80.40;;;8.73;57.40;96604.34;5032511;28;20045;-52
2024/03/01 00:09:13;;;;;;;27.23;16.40;;;7.00;79.90;;;8.79;57.29;96593.03;5032360;28;20042;-50
2024/03/01 00:11:41;;;;;;;29.47;15.97;;;7.10;79.60;;;8.84;57.32;96590.66;5032633;28;20415;-48
2024/03/01 00:14:09;;;;;;;34.40;17.23;;;7.10;79.20;;;8.85;57.14;96589.66;5032510;28;20040;-48
2024/03/01 00:16:36;;;;;;;28.23;17.43;;;7.10;79.10;;;8.85;57.11;96590.47;5032535;28;20041;-51
2024/03/01 00:19:04;;;;;;;27.57;16.73;;;7.10;79.10;;;8.85;56.87;96590.47;5032015;28;20061;-51
2024/03/01 00:21:32;;;;;;;26.37;15.43;;;7.10;78.90;;;8.88;56.83;96602.59;5032523;28;20052;-48
2024/03/01 00:23:59;;;;;;;27.13;15.57;;;7.10;78.70;;;8.91;56.78;96598.75;5032160;28;20042;-49
2024/03/01 00:26:27;;;;;;;27.53;15.03;;;7.20;78.60;;;8.91;56.80;96599.56;5032279;28;20367;-49
2024/03/01 00:28:54;;;;;;;30.53;14.60;;;7.20;78.50;;;8.94;56.78;96598.41;5031964;28;20056;-52
2024/03/01 00:31:22;;;;;;;26.40;15.57;;;7.20;78.20;;;8.91;56.54;96596.91;5032087;28;20045;-47
2024/03/01 00:33:50;;;;;;;30.20;16.23;;;7.20;78.00;;;8.92;56.77;96611.00;5031867;28;20482;-50
2024/03/01 00:36:17;;;;;;;28.03;17.20;;;7.30;78.10;;;8.93;56.86;96618.81;5031724;28;20052;-50
2024/03/01 00:38:46;;;;;;;29.00;16.53;;;7.20;77.90;;;8.93;56.74;96625.94;5014297;28;20048;-49
2024/03/01 00:41:14;;;;;;;26.50;15.33;;;7.20;78.10;;;8.95;56.71;96631.91;5032291;28;20041;-51
2024/03/01 00:43:42;;;;;;;28.83;17.73;;;7.20;77.70;;;8.95;56.70;96629.25;5032098;28;20045;-51
2024/03/01 00:46:10;;;;;;;30.10;16.20;;;7.20;77.70;;;8.94;56.79;96636.41;5031964;28;20056;-51
2024/03/01 00:48:37;;;;;;;33.20;17.53;;;7.10;78.00;;;8.95;56.59;96631.91;5031138;28;20041;-50
2024/03/01 00:51:05;;;;;;;32.50;17.30;;;7.10;78.20;;;8.94;56.78;96628.44;5031867;28;20046;-51
2024/03/01 00:53:33;;;;;;;31.70;17.77;;;7.10;77.90;;;8.91;56.56;96623.47;5014314;28;20041;-47
2024/03/01 00:56:01;;;;;;;27.23;15.50;;;7.00;78.20;;;8.87;56.78;96622.97;5031933;28;20046;-51
2024/03/01 00:58:28;;;;;;;32.27;16.37;;;7.00;78.20;;;8.86;56.50;96620.53;5030545;28;20064;-52
2024/03/01 01:00:56;;;;;;;29.60;17.67;;;7.00;78.30;;;8.86;56.68;96615.22;5031667;28;20411;-50
2024/03/01 01:03:24;;;;;;;31.80;17.40;;;7.00;78.40;;;8.86;56.73;96613.38;5031427;28;20087;-50
2024/03/01 01:05:51;;;;;;;32.80;17.70;;;7.00;78.30;;;8.89;56.77;96612.19;5031373;28;20049;-49
2024/03/01 01:08:19;;;;;;;28.37;16.43;;;7.00;78.10;;;8.90;56.61;96603.25;5031089;28;20041;-52
2024/03/01 01:10:46;;;;;;;32.63;17.80;;;7.00;78.00;;;8.87;56.56;96600.94;5037994;28;20053;-49
2024/03/01 01:13:14;;;;;;;31.93;17.83;;;7.00;78.10;;;8.85;56.75;96600.28;5023362;28;20048;-52
2024/03/01 01:15:42;;;;;;;29.23;17.23;;;6.90;78.50;;;8.81;56.67;96593.69;5031320;28;20419;-52
2024/03/01 01:18:12;;;;;;;30.13;17.33;;;6.90;78.90;;;8.76;56.85;96593.38;5030666;28;20057;-53
2024/03/01 01:20:40;;;;;;;27.77;17.07;;;6.80;79.40;;;8.74;56.92;96590.88;5031521;28;20438;-49
2024/03/01 01:23:07;;;;;;;25.60;15.03;;;6.80;79.70;;;8.74;56.94;96593.53;5031080;28;20050;-51
2024/03/01 01:25:35;;;;;;;29.00;16.63;;;6.80;79.80;;;8.74;57.20;96595.38;5030960;28;20041;-51
2024/03/01 01:28:03;;;;;;;23.03;14.53;;;6.80;80.60;;;8.75;57.12;96611.13;5030652;28;20104;-48
2024/03/01 01:30:31;;;;;;;31.13;16.60;;;6.80;79.80;;;8.77;57.19;96618.91;5031082;28;20037;-49
2024/03/01 01:32:58;;;;;;;28.40;15.40;;;6.90;80.10;;;8.77;57.23;96611.78;5030574;28;20064;-48
2024/03/01 01:35:26;;;;;;;29.67;15.77;;;6.90;79.90;;;8.77;57.28;96616.25;5013444;28;20041;-51
2024/03/01 01:37:56;;;;;;;32.27;18.17;;;6.90;79.20;;;8.73;57.03;96605.16;5030512;28;20053;-50
2024/03/01 01:40:26;;;;;;;31.73;16.60;;;6.90;78.80;;;8.71;57.10;96598.38;5012844;28;20056;-48
2024/03/01 01:42:54;;;;;;;29.73;17.40;;;6.80;79.00;;;8.67;57.06;96595.25;5030910;28;20056;-49
2024/03/01 01:45:22;;;;;;;31.30;16.07;;;6.70;79.60;;;8.64;56.84;96587.63;5012765;28;20068;-50
2024/03/01 01:47:50;;;;;;;30.17;16.77;;;6.70;79.70;;;8.62;57.20;96586.97;5012853;28;20053;-52
2024/03/01 01:50:18;;;;;;;29.00;16.00;;;6.60;79.60;;;8.59;57.09;96582.03;5005514;28;20033;-51
2024/03/01 01:52:46;;;;;;;33.20;17.53;;;6.60;80.10;;;8.56;57.20;96591.16;5030791;28;20521;-48
2024/03/01 01:55:15;;;;;;;30.40;17.10;;;6.60;80.40;;;8.59;57.46;96593.47;5027431;28;20049;-51
2024/03/01 01:57:45;;;;;;;26.97;16.03;;;6.70;80.40;;;8.61;57.42;96588.81;5030228;28;20064;-48
2024/03/01 02:00:13;;;;;;;24.30;14.77;;;6.70;80.60;;;8.64;57.38;96588.44;5030544;28;20400;-49
2024/03/01 02:02:43;;;;;;;29.93;17.00;;;6.80;80.40;;;8.69;57.44;96584.47;5013337;28;20060;-49
2024/03/01 02:05:10;;;;;;;29.50;15.77;;;6.90;80.00;;;8.73;57.21;96577.81;5013113;28;20061;-47
2024/03/01 02:07:38;;;;;;;25.97;15.77;;;6.90;79.80;;;8.78;57.13;96586.06;5030367;28;20041;-49
2024/03/01 02:10:16;;;;;;;28.50;15.53;;;6.90;79.90;;;8.80;57.32;96587.56;5013264;28;20049;-49
2024/03/01 02:12:58;;;;;;;31.67;17.63;;;6.90;79.70;;;8.83;57.51;96594.31;5030826;28;20046;-49
2024/03/01 02:15:27;;;;;;;28.50;15.67;;;7.00;79.70;;;8.84;57.20;96575.56;5030422;28;20506;-47
2024/03/01 02:17:56;;;;;;;35.20;18.13;;;7.00;79.60;;;8.85;57.31;96576.41;5012814;28;20041;-47
2024/03/01 02:20:28;;;;;;;27.43;16.67;;;7.00;79.50;;;8.86;57.25;96555.00;5022969;28;20395;-49
2024/03/01 02:23:02;;;;;;;27.50;17.00;;;7.00;79.50;;;8.86;57.31;96546.22;5030470;28;20053;-51
2024/03/01 02:25:30;;;;;;;29.13;16.63;;;7.00;79.70;;;8.86;57.16;96539.06;5030244;28;20060;-48
2024/03/01 02:27:58;;;;;;;28.33;14.70;;;7.00;79.80;;;8.90;57.26;96541.34;5029679;28;20045;-53
2024/03/01 02:30:25;;;;;;;33.07;16.27;;;7.00;79.50;;;8.89;57.42;96537.88;5030595;28;20487;-51
2024/03/01 02:32:53;;;;;;;29.07;15.70;;;7.00;79.50;;;8.91;57.43;96535.06;5030413;28;20434;-53
2024/03/01 02:35:21;;;;;;;29.23;15.13;;;7.00;79.40;;;8.90;57.51;96534.22;5012387;28;20053;-49
2024/03/01 02:37:48;;;;;;;28.83;16.70;;;7.00;79.70;;;8.94;57.31;96540.84;5029998;28;20049;-51
2024/03/01 02:40:16;;;;;;;28.97;15.47;;;7.10;79.60;;;8.94;57.30;96547.97;5029990;28;20046;-52
2024/03/01 02:42:44;;;;;;;27.50;15.10;;;7.10;79.50;;;8.95;57.45;96552.28;5029867;28;20052;-51
2024/03/01 02:45:12;;;;;;;26.87;15.90;;;7.10;80.40;;;8.97;57.37;96550.25;5030343;28;20503;-50
2024/03/01 02:47:39;;;;;;;27.50;15.07;;;7.20;79.30;;;8.97;57.33;96556.38;5012618;28;20044;-49
2024/03/01 02:50:08;;;;;;;28.67;14.57;;;7.20;79.20;;;8.99;57.47;96553.56;5030380;28;20050;-48
2024/03/01 02:52:36;;;;;;;33.67;16.10;;;7.20;79.00;;;8.98;57.14;96549.28;5030256;28;20052;-50
2024/03/01 02:55:04;;;;;;;32.77;16.67;;;7.20;79.10;;;8.96;57.13;96560.06;5030562;28;20046;-49
2024/03/01 02:57:32;;;;;;;25.90;15.73;;;7.10;79.10;;;8.91;57.06;96548.31;5032032;28;20044;-48
2024/03/01 02:59:59;;;;;;;29.73;15.67;;;7.00;79.40;;;8.86;57.22;96548.88;5033013;28;20054;-49
2024/03/01 03:02:28;;;;;;;25.17;14.43;;;6.90;79.70;;;8.81;57.17;96554.69;5033819;28;20513;-49
2024/03/01 03:04:55;;;;;;;27.53;15.17;;;6.90;80.00;;;8.79;57.20;96553.22;5033986;28;20046;-48
2024/03/01 03:07:23;;;;;;;28.67;16.03;;;6.80;80.10;;;8.76;57.36;96556.22;5033864;28;20053;-49
2024/03/01 03:09:51;;;;;;;31.47;17.13;;;6.80;80.60;;;8.76;57.50;96556.22;5033300;28;20391;-51
2024/03/01 03:12:18;;;;;;;28.13;16.83;;;6.80;80.60;;;8.77;57.12;96545.44;5033535;28;20053;-50
2024/03/01 03:14:46;;;;;;;30.77;15.97;;;6.80;80.30;;;8.78;57.56;96541.78;5033494;28;20042;-48
2024/03/01 03:17:13;;;;;;;30.67;17.77;;;6.90;80.60;;;8.80;57.56;96536.28;5016013;28;20045;-51
2024/03/01 03:19:42;;;;;;;32.87;16.93;;;6.90;80.60;;;8.80;57.63;96537.13;5033241;28;20490;-50
2024/03/01 03:22:10;;;;;;;31.17;17.97;;;6.90;81.40;;;8.81;57.64;96536.09;5033523;28;20072;-49
2024/03/01 03:24:38;;;;;;;34.83;18.63;;;6.90;80.70;;;8.82;57.56;96543.09;5033231;28;20399;-51
2024/03/01 03:27:06;;;;;;;26.77;15.83;;;6.90;80.60;;;8.84;57.72;96533.13;4999637;28;20537;-49
2024/03/01 03:29:35;;;;;;;28.03;17.13;;;6.90;80.60;;;8.84;57.63;96533.13;5032654;28;20093;-50
2024/03/01 03:32:03;;;;;;;29.60;17.57;;;7.00;80.60;;;8.85;57.71;96532.09;5033192;28;20057;-49
2024/03/01 03:34:31;;;;;;;35.60;18.77;;;7.00;80.50;;;8.85;57.52;96547.19;5033595;28;20049;-52
2024/03/01 03:36:59;;;;;;;28.50;15.00;;;6.90;80.50;;;8.85;57.77;96557.81;5015869;28;20511;-51
2024/03/01 03:39:26;;;;;;;29.90;17.57;;;6.90;80.80;;;8.85;57.65;96555.16;5032758;28;20056;-50
2024/03/01 03:41:55;;;;;;;28.43;17.23;;;6.90;80.70;;;8.81;57.70;96560.00;5015784;28;20521;-49
2024/03/01 03:44:23;;;;;;;30.83;17.67;;;6.90;80.90;;;8.81;57.91;96564.47;5033228;28;20058;-49
2024/03/01 03:46:51;;;;;;;29.23;17.53;;;6.90;81.00;;;8.81;57.68;96559.19;5033323;28;20054;-48
2024/03/01 03:49:19;;;;;;;27.50;16.20;;;6.90;80.80;;;8.81;57.79;96567.13;5032640;28;20049;-49
2024/03/01 03:51:47;;;;;;;30.40;17.73;;;6.90;81.00;;;8.79;57.95;96566.50;5015300;28;20057;-51
2024/03/01 03:54:16;;;;;;;30.33;17.77;;;6.80;81.10;;;8.76;57.90;96567.69;5033098;28;20048;-49
2024/03/01 03:56:44;;;;;;;27.67;14.87;;;6.80;81.40;;;8.77;57.98;96573.81;5033019;28;20418;-49
2024/03/01 03:59:11;;;;;;;30.53;16.83;;;6.80;82.00;;;8.76;58.17;96578.28;5014249;28;20060;-50
2024/03/01 04:01:39;;;;;;;32.83;16.60;;;6.80;82.00;;;8.76;57.99;96582.75;5032950;28;20049;-49
2024/03/01 04:04:07;;;;;;;29.47;17.33;;;6.90;82.20;;;8.76;58.31;96586.25;5032493;28;20053;-49
2024/03/01 04:06:34;;;;;;;30.70;18.10;;;6.80;82.10;;;8.78;58.20;96586.06;5015346;28;20038;-49
2024/03/01 04:09:03;;;;;;;32.20;17.53;;;6.90;82.10;;;8.78;58.29;96580.75;5031684;28;20046;-51
2024/03/01 04:11:31;;;;;;;28.50;17.00;;;6.90;82.00;;;8.77;58.50;96589.72;5024666;28;20494;-50
2024/03/01 04:13:59;;;;;;;29.27;18.03;;;6.90;82.50;;;8.77;58.46;96595.84;5032097;28;20041;-50
2024/03/01 04:16:26;;;;;;;28.13;17.23;;;6.90;82.10;;;8.77;58.49;96606.47;5032585;28;20456;-49
2024/03/01 04:18:54;;;;;;;28.80;16.90;;;6.90;82.00;;;8.76;58.17;96606.63;5032122;28;20056;-50
2024/03/01 04:21:22;;;;;;;35.23;19.00;;;6.90;82.30;;;8.75;58.34;96608.47;5014914;28;20045;-47
2024/03/01 04:23:50;;;;;;;34.07;17.80;;;6.90;82.70;;;8.76;58.32;96609.28;5032533;28;20052;-52
2024/03/01 04:26:18;;;;;;;30.90;17.23;;;6.90;82.30;;;8.77;58.49;96606.47;5032392;28;20495;-48
2024/03/01 04:28:46;;;;;;;34.93;19.23;;;6.90;82.20;;;8.78;58.54;96594.88;5031947;28;20418;-47
2024/03/01 04:31:14;;;;;;;32.50;16.57;;;7.00;81.80;;;8.81;58.32;96591.84;5032277;28;20041;-49
2024/03/01 04:33:42;;;;;;;34.73;17.00;;;7.00;81.60;;;8.83;58.40;96594.31;5031883;28;20395;-48
2024/03/01 04:36:10;;;;;;;30.07;17.30;;;7.00;81.30;;;8.85;58.39;96598.44;5031880;28;20297;-50
2024/03/01 04:38:38;;;;;;;31.57;17.17;;;7.00;81.30;;;8.84;58.33;96615.38;5032091;28;20052;-49
2024/03/01 04:41:06;;;;;;;31.93;16.93;;;7.10;81.70;;;8.86;58.54;96621.34;5032342;28;20048;-50
2024/03/01 04:43:33;;;;;;;42.73;18.77;;;7.10;81.90;;;8.89;58.52;96625.47;5032000;28;20446;-49
2024/03/01 04:46:02;;;;;;;33.63;17.37;;;7.10;81.60;;;8.91;58.56;96620.81;5032135;28;20041;-48
2024/03/01 04:48:30;;;;;;;31.50;18.30;;;7.10;81.70;;;8.91;58.39;96615.50;5021948;28;20045;-48
2024/03/01 04:50:58;;;;;;;33.47;19.00;;;7.10;82.00;;;8.95;58.47;96613.31;5014736;28;20052;-51
2024/03/01 04:53:25;;;;;;;30.07;16.50;;;7.10;81.70;;;8.95;58.40;96605.34;5031825;28;20042;-50
2024/03/01 04:55:53;;;;;;;30.50;17.73;;;7.10;81.70;;;8.95;58.32;96605.34;5028344;28;20055;-48
2024/03/01 04:58:20;;;;;;;31.00;16.33;;;7.10;81.60;;;8.95;58.49;96602.72;5031463;28;20041;-49
2024/03/01 05:00:48;;;;;;;29.00;17.60;;;7.10;82.00;;;8.96;58.43;96601.72;5031937;28;20533;-49
2024/03/01 05:03:16;;;;;;;31.50;17.87;;;7.10;81.90;;;8.99;58.50;96611.97;5031692;28;20435;-50
2024/03/01 05:05:44;;;;;;;25.23;16.00;;;7.20;81.80;;;9.03;58.58;96611.47;5031833;28;20521;-50
2024/03/01 05:08:11;;;;;;;32.13;16.60;;;7.20;81.70;;;9.05;58.78;96617.41;5031168;28;20053;-49
2024/03/01 05:10:39;;;;;;;26.53;16.33;;;7.30;81.70;;;9.10;58.41;96611.56;5031608;28;20040;-51
2024/03/01 05:13:08;;;;;;;32.90;16.60;;;7.30;81.30;;;9.11;58.47;96613.22;5014201;28;20061;-51
2024/03/01 05:15:35;;;;;;;26.67;16.73;;;7.30;81.60;;;9.13;58.26;96613.03;5038055;28;20053;-52
2024/03/01 05:18:03;;;;;;;27.53;16.20;;;7.40;81.40;;;9.14;58.56;96615.50;5031181;28;20050;-51
2024/03/01 05:20:31;;;;;;;35.87;18.97;;;7.40;81.30;;;9.18;58.48;96622.13;5030596;28;20049;-48
2024/03/01 05:22:59;;;;;;;29.03;17.37;;;7.40;81.70;;;9.20;58.37;96628.06;5031311;28;20049;-50
2024/03/01 05:25:26;;;;;;;36.37;17.93;;;7.40;81.80;;;9.22;58.54;96623.41;5031321;28;20418;-49
2024/03/01 05:27:54;;;;;;;28.67;17.40;;;7.40;81.70;;;9.23;58.32;96626.91;5030919;28;20978;-53
2024/03/01 05:30:23;;;;;;;31.97;17.83;;;7.40;81.80;;;9.25;58.41;96619.59;5031307;28;20045;-48
2024/03/01 05:33:12;;;;;;;30.77;16.37;;;7.40;81.20;;;9.25;58.31;96623.06;5031417;28;20049;-47
2024/03/01 05:35:41;;;;;;;29.27;16.70;;;7.40;81.30;;;9.24;58.07;96621.41;5022866;28;20045;-48
2024/03/01 05:38:08;;;;;;;32.47;19.07;;;7.40;81.20;;;9.22;58.12;96635.88;5031003;28;20049;-47
2024/03/01 05:40:37;;;;;;;51.50;29.57;;;7.40;81.80;;;9.20;58.47;96640.53;5031245;28;20052;-51
2024/03/01 05:43:21;;;;;;;35.63;20.70;;;7.40;82.10;;;9.19;58.24;96641.53;5030981;28;20049;-47
2024/03/01 05:45:50;;;;;;;32.10;18.93;;;7.40;82.10;;;9.17;58.30;96641.72;5031405;28;20084;-50
2024/03/01 05:48:18;;;;;;;31.53;18.70;;;7.30;82.10;;;9.15;58.30;96638.41;5030705;28;20045;-50
2024/03/01 05:50:46;;;;;;;28.20;17.37;;;7.30;81.90;;;9.12;58.66;96646.72;5031242;28;20038;-48
2024/03/01 05:53:14;;;;;;;32.07;19.00;;;7.30;81.80;;;9.13;58.46;96642.22;5013652;28;20060;-49
2024/03/01 05:55:44;;;;;;;30.40;18.27;;;7.30;81.70;;;9.15;58.33;96645.53;5023594;28;20045;-50
2024/03/01 05:58:11;;;;;;;34.80;18.53;;;7.40;81.30;;;9.10;58.24;96646.06;5030571;28;20041;-50
2024/03/01 06:00:40;;;;;;;27.90;16.93;;;7.30;81.20;;;9.07;58.32;96646.41;5030979;28;20046;-50
2024/03/01 06:03:08;;;;;;;30.83;18.80;;;7.30;81.50;;;9.06;58.51;96639.47;5030765;28;20056;-48
2024/03/01 06:05:37;;;;;;;28.83;16.87;;;7.20;82.00;;;9.05;58.45;96641.31;5030948;28;20076;-51
2024/03/01 06:08:05;;;;;;;24.80;15.73;;;7.20;83.10;;;9.06;58.55;96647.44;5030528;28;20052;-48
2024/03/01 06:10:32;;;;;;;32.73;17.37;;;7.20;82.60;;;9.04;58.71;96646.78;5030369;28;20048;-50
2024/03/01 06:13:00;;;;;;;32.63;17.67;;;7.10;82.90;;;9.01;58.79;96658.56;5031021;28;20049;-49
2024/03/01 06:15:28;;;;;;;34.07;16.97;;;7.10;83.20;;;8.98;58.83;96660.78;5030788;28;20049;-48
2024/03/01 06:17:56;;;;;;;31.87;16.57;;;7.00;83.30;;;8.96;58.86;96660.94;5030311;28;20045;-50
2024/03/01 06:20:24;;;;;;;31.57;17.77;;;7.10;83.60;;;8.96;59.03;96660.94;5030539;28;20061;-47
2024/03/01 06:22:51;;;;;;;30.40;18.30;;;7.10;83.70;;;8.97;58.88;96664.41;5012971;28;20053;-48
2024/03/01 06:25:19;;;;;;;29.17;16.83;;;7.20;83.50;;;9.00;59.20;96669.38;5030686;28;20057;-50
2024/03/01 06:27:48;;;;;;;24.70;16.37;;;7.20;83.20;;;9.03;59.00;96663.69;5030402;28;20442;-49
2024/03/01 06:30:15;;;;;;;31.73;17.83;;;7.20;83.00;;;9.03;59.06;96661.91;5030533;28;20041;-47
2024/03/01 06:32:43;;;;;;;27.93;17.40;;;7.30;83.10;;;9.07;59.25;96670.31;5032666;28;20410;-48
2024/03/01 06:35:11;;;;;;;31.87;17.13;;;7.30;82.90;;;9.09;59.26;96664.84;5034564;28;20049;-48
2024/03/01 06:37:39;;;;;;;35.80;19.27;;;7.40;82.60;;;9.11;58.95;96669.00;5034053;28;20052;-49
2024/03/01 06:40:09;;;;;;;32.20;17.90;;;7.40;82.40;;;9.12;58.98;96670.63;5034384;28;20049;-52
2024/03/01 06:42:37;;;;;;;29.70;17.47;;;7.40;82.50;;;9.15;59.05;96672.09;5034237;28;20049;-51
2024/03/01 06:45:07;;;;;;;30.87;18.17;;;7.40;82.60;;;9.16;59.00;96669.28;5016793;28;20049;-48
2024/03/01 06:47:35;;;;;;;31.83;18.57;;;7.40;82.30;;;9.16;58.84;96674.56;5017016;28;20449;-47
2024/03/01 06:50:03;;;;;;;26.87;15.53;;;7.40;82.60;;;9.17;59.11;96680.72;5033845;28;20053;-47
2024/03/01 06:52:31;;;;;;;33.37;17.23;;;7.40;82.50;;;9.15;59.00;96672.09;5034144;28;20044;-50
2024/03/01 06:54:59;;;;;;;30.70;17.07;;;7.40;82.60;;;9.16;59.11;96681.72;5034262;28;20037;-47
2024/03/01 06:57:27;;;;;;;28.67;16.60;;;7.40;82.20;;;9.16;58.99;96674.56;5016614;28;20048;-51
2024/03/01 06:59:56;;;;;;;30.00;16.50;;;7.40;82.00;;;9.18;58.90;96672.56;5015409;28;20049;-50
2024/03/01 07:02:23;;;;;;;30.07;17.30;;;7.40;81.90;;;9.20;59.09;96667.09;5033887;28;20040;-48
2024/03/01 07:04:51;;;;;;;33.93;16.27;;;7.40;81.60;;;9.19;58.85;96670.72;5034161;28;20049;-50
2024/03/01 07:07:19;;;;;;;30.70;17.73;;;7.40;81.70;;;9.15;58.91;96672.09;5034332;28;20143;-48
2024/03/01 07:09:46;;;;;;;31.37;16.80;;;7.40;82.10;;;9.15;58.95;96664.97;5033507;28;20041;-50
2024/03/01 07:12:14;;;;;;;31.10;16.57;;;7.40;83.20;;;9.18;58.90;96669.91;5033985;28;20053;-51
2024/03/01 07:14:43;;;;;;;28.30;15.27;;;7.40;82.30;;;9.20;59.11;96675.88;5032931;28;20038;-48
2024/03/01 07:17:10;;;;;;;31.40;16.80;;;7.40;82.20;;;9.21;58.87;96671.41;5033807;28;20045;-46
2024/03/01 07:19:38;;;;;;;26.27;15.93;;;7.40;81.70;;;9.20;58.82;96669.75;5033282;28;20486;-50
2024/03/01 07:22:07;;;;;;;29.73;16.97;;;7.40;81.70;;;9.20;58.89;96661.78;5033656;28;20041;-47
2024/03/01 07:24:41;;;;;;;25.27;14.80;;;7.50;81.70;;;9.21;58.95;96671.41;5033545;28;20419;-47
2024/03/01 07:27:08;;;;;;;28.63;15.48;;;7.50;81.70;;;9.24;58.81;96669.19;5033638;28;20513;-47
2024/03/01 07:29:36;;;;;;;33.33;16.17;;;7.50;81.60;;;9.26;58.81;96667.19;5014733;28;20049;-48
2024/03/01 07:32:03;;;;;;;25.47;15.10;;;7.60;81.40;;;9.31;58.77;96666.69;5033098;28;20037;-48
2024/03/01 07:34:31;;;;;;;31.57;16.33;;;7.60;81.50;;;9.34;58.77;96666.31;5018204;28;20052;-51
2024/03/01 07:36:59;;;;;;;25.30;15.80;;;7.60;81.50;;;9.38;58.79;96661.47;5033393;28;20045;-47
2024/03/01 07:39:27;;;;;;;25.03;15.40;;;7.70;81.40;;;9.42;59.06;96671.59;5032732;28;20038;-50
2024/03/01 07:41:55;;;;;;;24.73;15.47;;;7.70;81.00;;;9.45;58.83;96665.91;5033219;28;20056;-48
2024/03/01 07:44:23;;;;;;;25.00;15.03;;;7.70;81.10;;;9.48;58.96;96664.75;5032115;28;20061;-50
2024/03/01 07:46:57;;;;;;;25.23;15.07;;;7.80;80.80;;;9.50;58.65;96662.72;5025139;28;20037;-50
2024/03/01 07:49:25;;;;;;;26.53;15.03;;;7.80;80.30;;;9.52;58.82;96663.38;5008777;28;20060;-49
2024/03/01 07:51:53;;;;;;;26.77;15.30;;;7.90;80.10;;;9.57;58.71;96662.81;5032953;28;20041;-48
2024/03/01 07:54:22;;;;;;;25.67;14.87;;;7.90;80.10;;;9.63;58.65;96651.47;5032926;28;20064;-49
2024/03/01 07:56:50;;;;;;;26.03;15.90;;;8.00;79.90;;;9.67;58.43;96658.09;5029488;28;20045;-48
2024/03/01 07:59:17;;;;;;;23.87;15.87;;;8.00;79.60;;;9.73;58.29;96657.38;5032659;28;20048;-48
2024/03/01 08:01:45;;;;;;;22.77;13.83;;;8.00;79.50;;;9.77;58.20;96658.69;5033218;28;20060;-49
2024/03/01 08:04:13;;;;;;;26.60;14.80;;;8.10;78.90;;;9.83;58.21;96655.28;4999261;28;20053;-48
2024/03/01 08:06:41;;;;;;;23.60;14.27;;;8.20;78.60;;;9.86;58.37;96667.38;4998651;28;20061;-48
2024/03/01 08:09:18;;;;;;;26.73;14.27;;;8.30;78.30;;;9.92;57.86;96671.97;5032174;28;20041;-49
2024/03/01 08:11:47;;;;;;;32.13;15.27;;;8.30;77.30;;;9.94;58.26;96675.28;5032358;28;20052;-48
2024/03/01 08:14:31;;;;;;;27.27;15.77;;;8.30;77.80;;;9.96;58.20;96673.25;5032897;28;20068;-48
2024/03/01 08:16:59;;;;;;;23.60;14.07;;;8.40;77.40;;;10.00;57.68;96663.09;5007960;28;20041;-45
2024/03/01 08:19:47;;;;;;;25.33;15.13;;;8.40;77.60;;;10.03;57.83;96668.06;5031828;28;20503;-49
2024/03/01 08:22:19;;;;;;;24.03;15.07;;;8.50;77.30;;;10.09;57.70;96669.19;5008697;28;20057;-49
2024/03/01 08:24:49;;;;;;;21.83;13.27;;;8.50;77.60;;;10.13;57.74;96673.94;5032529;28;20045;-46
2024/03/01 08:27:22;;;;;;;26.63;15.90;;;8.60;77.40;;;10.18;57.47;96679.53;5032236;28;20041;-48
2024/03/01 08:29:54;;;;;;;28.17;19.10;;;8.60;77.20;;;10.26;57.70;96683.97;5032328;28;20075;-47
2024/03/01 08:32:32;;;;;;;28.57;15.40;;;8.70;77.00;;;10.31;57.98;96689.56;5015235;28;20052;-46
2024/03/01 08:35:00;;;;;;;24.43;14.27;;;8.70;76.80;;;10.35;57.32;96687.38;5020642;28;20061;-50
2024/03/01 08:37:30;;;;;;;24.83;15.20;;;8.80;76.70;;;10.38;57.32;96695.81;5028643;28;20049;-50
2024/03/01 08:40:00;;;;;;;25.60;14.50;;;8.80;76.40;;;10.42;57.37;96683.78;5023811;28;20041;-51
2024/03/01 08:42:34;;;;;;;22.07;13.10;;;8.90;76.70;;;10.48;57.06;96692.06;5014705;28;20490;-51
2024/03/01 08:45:04;;;;;;;25.67;14.03;;;8.90;76.80;;;10.54;57.34;96688.66;5024567;28;20491;-49
2024/03/01 08:47:37;;;;;;;22.60;14.40;;;9.00;76.30;;;10.58;57.46;96690.75;5030961;28;20587;-47
2024/03/01 08:50:44;;;;;;;23.73;13.83;;;9.00;76.40;;;10.66;57.68;96683.69;5031961;28;20064;-48
2024/03/01 08:53:40;;;;;;;22.33;12.43;;;9.10;76.20;;;10.71;57.57;96687.44;5026209;28;20434;-47
2024/03/01 08:56:20;;;;;;;25.87;13.87;;;9.20;75.00;;;10.77;56.72;96689.38;5024783;28;20495;-46
2024/03/01 08:58:55;;;;;;;20.50;11.60;;;9.20;75.30;;;10.80;56.81;96691.69;5031330;28;20519;-55
2024/03/01 09:01:25;;;;;;;22.77;12.50;;;9.30;75.60;;;10.88;56.98;96700.56;5024297;28;20038;-48
2024/03/01 09:03:53;;;;;;;22.10;12.93;;;9.30;75.20;;;10.95;56.79;96694.31;5013893;28;20049;-48
2024/03/01 09:06:21;;;;;;;22.57;12.87;;;9.40;74.80;;;11.01;56.34;96698.06;5031827;28;20044;-49
2024/03/01 09:08:49;;;;;;;21.67;13.03;;;9.50;74.40;;;11.07;56.24;96697.31;5031374;28;20045;-47
2024/03/01 09:11:19;;;;;;;17.73;10.47;;;9.50;74.30;;;11.13;56.43;96693.91;5032004;28;20049;-47
2024/03/01 09:13:46;;;;;;;20.53;11.03;;;9.60;73.90;;;11.17;56.26;96692.50;5013434;28;20049;-46
2024/03/01 09:16:21;;;;;;;21.53;11.17;;;9.70;73.50;;;11.21;56.15;96691.13;5032032;28;20041;-46
2024/03/01 09:18:49;;;;;;;17.47;11.33;;;9.70;73.00;;;11.25;56.01;96699.56;5031689;28;20502;-46
2024/03/01 09:21:41;;;;;;;17.13;10.70;;;9.70;72.40;;;11.27;55.52;96699.38;5032037;28;20045;-46
2024/03/01 09:24:11;;;;;;;18.77;11.20;;;9.80;72.20;;;11.31;55.57;96704.13;5024955;28;20241;-46
2024/03/01 09:26:40;;;;;;;19.13;9.70;;;9.80;71.90;;;11.35;55.28;96694.75;5031303;28;20391;-46
2024/03/01 09:29:18;;;;;;;27.37;17.07;;;9.90;71.80;;;11.40;55.58;96699.53;5030926;28;20042;-46
2024/03/01 09:31:45;;;;;;;18.53;11.87;;;9.90;71.50;;;11.43;55.00;96696.47;5031174;28;20037;-47
2024/03/01 09:34:17;;;;;;;18.70;11.20;;;9.90;70.60;;;11.46;54.68;96701.44;5031264;28;20442;-46
2024/03/01 09:36:45;;;;;;;17.10;9.73;;;9.90;70.60;;;11.48;54.58;96696.72;5031183;28;20049;-47
2024/03/01 09:39:12;;;;;;;16.10;10.00;;;9.90;70.50;;;11.51;54.97;96700.84;5030662;28;20037;-46
2024/03/01 09:42:07;;;;;;;20.50;9.83;;;9.90;71.00;;;11.51;54.94;96695.53;5030927;28;20506;-46
2024/03/01 09:44:50;;;;;;;20.90;10.37;;;10.00;70.60;;;11.53;54.93;96704.16;5012869;28;20517;-50
2024/03/01 09:47:48;;;;;;;16.17;10.20;;;9.90;70.70;;;11.52;54.33;96706.00;5024925;28;20064;-48
2024/03/01 09:50:47;;;;;;;15.47;10.30;;;9.90;70.20;;;11.53;54.84;96706.81;5024793;28;20041;-46
2024/03/01 09:54:04;;;;;;;26.83;10.17;;;9.90;70.50;;;11.57;54.75;96705.41;5024414;28;20537;-45
2024/03/01 09:56:58;;;;;;;16.17;9.17;;;10.00;70.30;;;11.63;54.54;96707.31;5026458;28;20041;-47
2024/03/01 09:59:55;;;;;;;15.82;9.68;;;10.00;70.90;;;11.64;54.62;96708.97;5024994;28;20033;-46
2024/03/01 10:02:53;;;;;;;15.10;9.63;;;10.00;70.30;;;11.64;54.26;96706.31;5025244;28;20044;-46
2024/03/01 10:05:52;;;;;;;16.23;10.40;;;10.00;71.00;;;11.65;54.79;96715.13;5025066;28;20049;-47
2024/03/01 10:08:59;;;;;;;16.27;9.53;;;10.00;72.60;;;11.63;54.93;96705.50;5006697;28;20403;-46
2024/03/01 10:12:01;;;;;;;18.23;11.13;;;10.00;72.50;;;11.67;55.29;96713.94;5009646;28;20052;-48
2024/03/01 10:14:45;;;;;;;16.33;9.67;;;10.00;74.60;;;11.69;55.53;96711.06;5025964;28;20053;-48
2024/03/01 10:17:54;;;;;;;17.90;11.50;;;10.00;74.40;;;11.69;55.53;96709.25;5013794;28;20044;-46
2024/03/01 10:21:01;;;;;;;17.07;10.50;;;10.00;74.80;;;11.70;55.84;96708.22;5010056;28;20038;-50
2024/03/01 10:24:00;;;;;;;17.77;11.20;;;10.10;75.30;;;11.71;56.00;96709.03;5015322;28;20048;-47
2024/03/01 10:26:32;;;;;;;15.80;9.87;;;10.10;75.70;;;11.72;56.13;96708.03;5005988;28;20057;-46
2024/03/01 10:29:06;;;;;;;15.97;9.77;;;10.10;77.00;;;11.73;56.26;96712.31;5012707;28;20049;-48
2024/03/01 10:31:42;;;;;;;;;;;10.10;75.70;;;11.74;56.18;96706.81;5030707;28;20046;-47
2024/03/01 10:34:40;;;;;;;14.07;9.20;;;10.10;74.70;;;11.80;55.82;96714.03;5022843;28;19932;-49